Time;durP1;ratioP1;P1;durP2;ratioP2;P2;SDS_P1;SDS_P2;PMS_P1;PMS_P2;Temp;Humidity;BMP_temperature;BMP_pressure;BME280_temperature;BME280_humidity;BME280_pressure;Samples;Min_cycle;Max_cycle;Signal;HPM_P1;HPM_P2
2024/02/15 07:08:25;;;;;;;2.33;1.25;;;;;;;8.00;98.10;97014.75;2082177;28;21087;-64
2024/02/15 07:12:41;;;;;;;4.32;1.48;;;;;;;8.86;93.08;97001.81;2083781;28;20554;-62
2024/02/15 07:14:55;;;;;;;4.57;1.42;;;;;;;9.15;90.80;96996.50;2099995;27;20607;-65
2024/02/15 07:15:57;;;;;;;6.82;1.70;;;;;;;9.43;89.90;96989.50;2084150;28;20631;-65
2024/02/15 07:16:59;;;;;;;7.00;1.95;;;;;;;9.71;88.65;96996.34;2081027;28;20277;-65
2024/02/15 07:18:57;;;;;;;4.43;1.50;;;;;;;10.08;86.27;96980.22;2088726;27;20561;-63
2024/02/15 07:24:17;;;;;;;9.55;1.90;;;;;;;10.16;85.39;96992.97;2097434;27;20616;-63
2024/02/15 07:25:19;;;;;;;7.47;1.80;;;;;;;10.55;84.03;96988.91;2096609;28;20201;-63
2024/02/15 07:26:24;;;;;;;5.85;2.45;;;;;;;10.81;82.33;96982.66;2092269;28;20243;-63
2024/02/15 07:27:26;;;;;;;4.05;1.85;;;;;;;11.24;81.08;96983.50;2091873;28;20208;-63
2024/02/15 07:28:28;;;;;;;3.92;1.88;;;;;;;10.70;81.74;96959.56;2094469;28;20203;-63
2024/02/15 07:29:31;;;;;;;7.18;1.80;;;;;;;11.01;81.27;96975.75;2091344;28;20566;-63
2024/02/15 07:30:33;;;;;;;8.77;1.98;;;;;;;11.17;80.65;96978.59;2089742;28;20623;-63
2024/02/15 07:31:34;;;;;;;9.32;1.83;;;;;;;11.10;80.57;96970.19;2092477;28;20563;-63
2024/02/15 07:32:36;;;;;;;5.15;1.73;;;;;;;11.40;79.57;96968.03;2092515;28;20255;-63
2024/02/15 07:33:38;;;;;;;9.98;1.73;;;;;;;11.27;79.39;96967.72;2093053;28;20210;-66
2024/02/15 07:34:41;;;;;;;5.75;1.55;;;;;;;11.54;78.56;96977.91;2094138;28;20304;-66
2024/02/15 07:35:44;;;;;;;10.02;1.70;;;;;;;10.72;80.56;96954.31;2092259;28;20222;-66
2024/02/15 07:36:46;;;;;;;5.95;1.60;;;;;;;10.92;80.74;96972.63;2092923;28;20234;-65
2024/02/15 07:37:55;;;;;;;7.85;1.33;;;;;;;10.75;80.48;96960.25;2090379;28;20204;-66
2024/02/15 07:39:00;;;;;;;4.47;1.20;;;;;;;10.50;81.85;96970.84;2093285;28;20199;-65
2024/02/15 07:40:07;;;;;;;6.93;1.73;;;;;;;10.15;82.40;96975.59;2094065;28;20200;-65
2024/02/15 07:41:09;;;;;;;7.70;1.55;;;;;;;10.48;82.10;96964.81;2085006;28;20702;-65
2024/02/15 07:42:10;;;;;;;6.50;1.30;;;;;;;10.60;81.08;96963.47;2085957;28;20202;-65
2024/02/15 07:43:12;;;;;;;3.97;1.45;;;;;;;10.42;81.16;96937.19;2084905;28;20195;-65
2024/02/15 07:44:13;;;;;;;3.17;1.80;;;;;;;10.17;82.53;96959.88;2084917;28;20206;-66
2024/02/15 07:45:15;;;;;;;4.75;1.35;;;;;;;10.02;83.32;96971.75;2085199;28;20203;-65
2024/02/15 07:46:17;;;;;;;7.53;1.58;;;;;;;10.01;83.07;96957.84;2083853;28;20765;-65
2024/02/15 07:47:20;;;;;;;6.13;1.90;;;;;;;9.55;84.62;96959.53;2084946;28;20704;-65
2024/02/15 07:48:22;;;;;;;5.05;2.03;;;;;;;9.66;84.80;96970.41;2086347;28;20587;-66
2024/02/15 07:49:24;;;;;;;3.47;1.38;;;;;;;9.70;84.90;96971.16;2085558;28;20949;-63
2024/02/15 07:50:26;;;;;;;5.88;1.70;;;;;;;9.70;84.48;96963.34;2082850;28;20237;-65
2024/02/15 07:51:28;;;;;;;14.20;2.70;;;;;;;9.28;86.06;96963.06;2084730;28;20600;-63
2024/02/15 07:52:29;;;;;;;5.05;1.90;;;;;;;9.44;85.64;96967.75;2085315;28;20251;-63
2024/02/15 07:53:31;;;;;;;6.40;1.77;;;;;;;9.44;85.88;96952.94;2082608;28;20282;-63
2024/02/15 07:54:33;;;;;;;9.60;1.95;;;;;;;9.69;85.39;96959.91;2085048;28;20203;-63
2024/02/15 07:55:34;;;;;;;6.95;1.92;;;;;;;9.60;85.22;96963.69;2084970;28;20247;-62
2024/02/15 07:59:16;;;;;;;8.13;1.58;;;;;;;9.09;87.60;96959.38;2083197;28;20568;-63
2024/02/15 08:00:18;;;;;;;5.35;1.83;;;;;;;9.12;87.49;96959.28;2089475;28;20675;-63
2024/02/15 08:03:04;;;;;;;7.40;2.08;;;;;;;8.92;88.40;96965.16;2088399;28;20566;-64
2024/02/15 08:04:08;;;;;;;6.18;1.48;;;;;;;8.92;88.73;96968.59;2088544;28;20246;-64
2024/02/15 08:05:10;;;;;;;3.42;1.25;;;;;;;9.08;88.50;96958.53;2090773;28;20196;-63
2024/02/15 08:06:13;;;;;;;10.20;1.55;;;;;;;9.18;88.08;96971.22;2086474;28;20235;-63
2024/02/15 08:07:14;;;;;;;8.57;1.30;;;;;;;9.02;87.93;96963.09;2086087;28;20236;-64
2024/02/15 08:08:16;;;;;;;4.43;1.70;;;;;;;8.97;88.18;96964.06;2085983;28;20205;-63
2024/02/15 08:09:20;;;;;;;5.55;1.33;;;;;;;9.12;87.57;96964.50;2086540;28;20200;-64
2024/02/15 08:10:22;;;;;;;2.67;1.10;;;;;;;9.28;86.99;96954.38;2085304;28;20726;-64
2024/02/15 08:11:26;;;;;;;5.60;1.65;;;;;;;9.39;86.48;96959.22;2086183;28;20207;-63
2024/02/15 08:12:27;;;;;;;5.00;1.45;;;;;;;9.40;86.20;96958.31;2085768;28;20188;-63
2024/02/15 08:13:29;;;;;;;4.43;1.60;;;;;;;9.24;86.44;96953.66;2086536;28;20201;-63
2024/02/15 08:14:31;;;;;;;4.00;1.50;;;;;;;9.38;86.53;96954.91;2086522;28;20201;-64
2024/02/15 08:15:33;;;;;;;2.25;1.33;;;;;;;9.40;85.93;96956.56;2086783;28;20197;-63
2024/02/15 08:16:35;;;;;;;5.53;1.75;;;;;;;9.29;86.24;96946.53;2086255;28;20200;-63
2024/02/15 08:17:37;;;;;;;2.75;1.40;;;;;;;9.12;86.98;96959.28;2086332;28;20197;-63
2024/02/15 08:18:39;;;;;;;8.18;1.70;;;;;;;9.01;87.43;96954.41;2085004;28;20283;-63
2024/02/15 08:21:32;;;;;;;4.07;1.70;;;;;;;9.02;87.38;96958.72;2109183;27;20547;-61
2024/02/15 08:24:25;;;;;;;6.18;1.52;;;;;;;8.43;88.42;96911.13;2083930;28;20568;-64
2024/02/15 08:27:10;;;;;;;4.65;1.90;;;;;;;8.63;89.26;96930.50;2081777;28;20561;-61
2024/02/15 08:29:46;;;;;;;4.32;2.10;;;;;;;8.64;89.51;96932.19;2083490;28;21097;-61
2024/02/15 08:32:12;;;;;;;9.15;2.40;;;;;;;8.76;88.99;96925.72;2082641;28;20538;-63
2024/02/15 08:33:13;;;;;;;3.72;1.92;;;;;;;8.61;89.28;96920.13;2082982;28;20188;-64
2024/02/15 08:34:15;;;;;;;4.72;2.25;;;;;;;8.49;89.46;96886.69;2080214;28;20216;-64
2024/02/15 08:35:16;;;;;;;10.80;2.95;;;;;;;8.88;88.70;96935.75;2080313;28;20192;-63
2024/02/15 08:36:18;;;;;;;8.32;2.67;;;;;;;8.83;88.70;96932.44;2079980;28;20300;-63
2024/02/15 08:37:20;;;;;;;5.40;2.28;;;;;;;8.96;88.80;96925.06;2082173;28;20235;-63
2024/02/15 08:38:22;;;;;;;9.05;1.92;;;;;;;8.95;88.19;96929.44;2081430;28;20208;-63
2024/02/15 08:39:24;;;;;;;8.35;2.10;;;;;;;9.06;87.48;96907.38;2082941;28;20201;-71
2024/02/15 08:40:26;;;;;;;4.68;2.20;;;;;;;9.05;86.87;96898.69;2081409;28;20204;-70
2024/02/15 08:41:28;;;;;;;11.70;2.42;;;;;;;9.44;86.59;96929.47;2081181;28;20712;-71
2024/02/15 08:42:29;;;;;;;6.63;2.30;;;;;;;9.70;84.84;96927.69;2081755;28;20727;-71
2024/02/15 08:43:33;;;;;;;6.22;1.90;;;;;;;9.64;84.74;96925.31;2080230;28;20298;-64
2024/02/15 08:44:35;;;;;;;5.38;2.85;;;;;;;10.13;83.35;96925.22;2080152;28;20201;-64
2024/02/15 08:45:37;;;;;;;7.40;2.33;;;;;;;10.29;82.95;96921.09;2082123;28;20197;-64
2024/02/15 08:46:38;;;;;;;6.03;2.25;;;;;;;10.45;82.24;96920.56;2083222;28;20599;-64
2024/02/15 08:47:41;;;;;;;9.45;2.45;;;;;;;10.84;81.05;96922.44;2081470;28;20200;-63
2024/02/15 08:48:44;;;;;;;4.90;2.00;;;;;;;11.23;78.81;96920.84;2081168;28;20193;-63
2024/02/15 08:49:45;;;;;;;5.97;2.10;;;;;;;10.99;79.07;96917.50;2082226;28;20719;-63
2024/02/15 08:50:47;;;;;;;8.30;1.95;;;;;;;11.34;78.14;96920.38;2076610;28;20213;-64
2024/02/15 08:51:48;;;;;;;5.18;2.40;;;;;;;11.29;78.24;96923.19;2078434;28;20253;-63
2024/02/15 08:52:50;;;;;;;7.13;2.20;;;;;;;11.79;77.10;96926.25;2079937;28;20287;-63
2024/02/15 08:53:52;;;;;;;5.00;2.20;;;;;;;12.18;75.45;96922.78;2080972;28;20194;-64
2024/02/15 08:54:55;;;;;;;5.30;2.10;;;;;;;12.41;74.58;96919.06;2082498;28;20336;-64
2024/02/15 08:55:57;;;;;;;7.75;2.25;;;;;;;12.45;74.41;96920.59;2080021;28;20334;-64
2024/02/15 08:56:59;;;;;;;5.30;1.85;;;;;;;12.90;73.00;96919.28;2081929;28;20211;-64
2024/02/15 08:58:00;;;;;;;7.53;2.50;;;;;;;13.30;71.15;96911.19;2082379;28;20324;-64
2024/02/15 08:59:02;;;;;;;8.25;2.40;;;;;;;13.09;71.73;96915.75;2081921;28;20211;-64
2024/02/15 09:00:13;;;;;;;5.93;2.05;;;;;;;13.08;72.13;96916.69;2083069;28;20648;-64
2024/02/15 09:01:15;;;;;;;6.63;1.80;;;;;;;13.08;72.13;96916.69;2081550;28;20307;-64
2024/02/15 09:02:17;;;;;;;6.57;2.15;;;;;;;14.04;69.43;96917.84;2084175;28;20216;-64
2024/02/15 09:03:19;;;;;;;4.25;2.03;;;;;;;13.76;69.63;96912.38;2083566;28;20193;-65
2024/02/15 09:04:23;;;;;;;4.72;1.58;;;;;;;14.16;68.46;96925.97;2081422;28;20190;-64
2024/02/15 09:05:25;;;;;;;7.63;2.40;;;;;;;14.33;67.74;96907.47;2079947;28;20724;-64
2024/02/15 09:06:26;;;;;;;4.57;2.00;;;;;;;14.43;67.55;96918.34;2083315;28;20250;-64
2024/02/15 09:07:30;;;;;;;6.22;1.98;;;;;;;14.82;67.15;96911.78;2080741;28;20925;-64
2024/02/15 09:08:32;;;;;;;15.60;2.00;;;;;;;14.35;66.96;96920.56;2078233;28;20284;-64
2024/02/15 09:09:33;;;;;;;3.42;1.73;;;;;;;14.74;66.79;96916.66;2079409;28;20201;-64
2024/02/15 09:10:39;;;;;;;4.53;1.63;;;;;;;15.25;64.81;96915.47;2083245;28;20198;-65
2024/02/15 09:11:40;;;;;;;6.15;1.70;;;;;;;-145.49;100.00;55703.94;2083436;28;20193;-64
2024/02/15 09:12:44;;;;;;;3.53;1.70;;;;;;;-145.49;100.00;55703.94;2082505;28;20215;-65
2024/02/15 09:13:46;;;;;;;5.40;1.95;;;;;;;15.25;64.81;96915.47;2081728;28;20201;-64
2024/02/15 09:14:48;;;;;;;6.57;2.03;;;;;;;14.50;66.07;96916.19;2078137;28;20596;-64
2024/02/15 09:15:50;;;;;;;7.50;1.90;;;;;;;14.95;65.99;96918.97;2079311;28;20267;-65
2024/02/15 09:16:51;;;;;;;11.32;2.13;;;;;;;15.71;64.10;96917.13;2081473;28;20240;-65
2024/02/15 09:17:54;;;;;;;8.55;1.70;;;;;;;15.87;63.69;96917.91;2080603;28;20198;-65
2024/02/15 09:19:00;;;;;;;4.80;1.50;;;;;;;15.82;63.22;96912.06;2081135;28;20252;-65
2024/02/15 09:20:02;;;;;;;3.90;1.45;;;;;;;15.72;63.32;96924.94;2078200;28;20201;-65
2024/02/15 09:21:04;;;;;;;3.67;1.90;;;;;;;15.42;63.96;96920.56;2078149;28;20277;-65
2024/02/15 09:22:06;;;;;;;4.93;1.80;;;;;;;15.66;63.45;96914.78;2083649;28;20193;-65
2024/02/15 09:23:09;;;;;;;4.93;1.73;;;;;;;15.61;63.58;96919.47;2080545;28;20201;-65
2024/02/15 09:24:11;;;;;;;4.93;1.55;;;;;;;15.81;63.16;96921.75;2080935;28;20216;-65
2024/02/15 09:25:13;;;;;;;4.90;1.65;;;;;;;15.82;62.97;96901.53;2079400;28;20237;-65
2024/02/15 09:26:14;;;;;;;10.57;2.95;;;;;;;15.66;63.02;96912.97;2079394;28;20302;-72
2024/02/15 09:27:16;;;;;;;6.05;2.35;;;;;;;15.87;62.83;96917.06;2082209;28;20249;-72
2024/02/15 09:28:21;;;;;;;4.13;1.80;;;;;;;15.51;63.42;96913.91;2077944;28;20208;-72
2024/02/15 09:29:24;;;;;;;7.78;2.40;;;;;;;15.79;63.20;96915.69;2079681;28;20695;-72
2024/02/15 09:30:27;;;;;;;6.70;1.80;;;;;;;16.26;62.35;96912.88;2077435;28;20230;-70
2024/02/15 09:31:29;;;;;;;5.35;2.10;;;;;;;16.44;61.51;96905.56;2080699;28;20248;-70
2024/02/15 09:32:31;;;;;;;7.45;2.20;;;;;;;15.72;62.57;96903.88;2080787;28;20869;-71
2024/02/15 09:33:32;;;;;;;7.45;2.15;;;;;;;16.61;61.38;96899.22;2078828;28;20288;-72
2024/02/15 09:34:34;;;;;;;5.85;2.30;;;;;;;17.17;59.58;96908.81;2082506;28;20262;-72
2024/02/15 09:35:37;;;;;;;7.10;2.35;;;;;;;16.76;60.12;96892.94;2080522;28;20205;-72
2024/02/15 09:36:39;;;;;;;8.48;2.53;;;;;;;16.67;60.79;96908.53;2081137;28;20270;-73
2024/02/15 09:37:50;;;;;;;6.70;1.80;;;;;;;16.56;60.91;96898.69;2081026;28;20200;-72
2024/02/15 09:38:52;;;;;;;6.88;2.20;;;;;;;17.09;60.48;96896.97;2084979;28;20249;-71
2024/02/15 09:39:54;;;;;;;9.27;1.90;;;;;;;17.26;59.02;96885.25;2085558;28;20209;-71
2024/02/15 09:40:56;;;;;;;5.28;1.70;;;;;;;17.38;58.80;96899.44;2078734;28;20221;-71
2024/02/15 09:41:58;;;;;;;3.30;1.50;;;;;;;17.98;57.94;96890.97;2079611;28;20202;-72
2024/02/15 09:43:00;;;;;;;4.28;1.70;;;;;;;17.92;58.03;96894.84;2075378;28;20227;-71
2024/02/15 09:44:03;;;;;;;5.03;1.67;;;;;;;17.96;57.40;96896.34;2074496;28;20670;-72
2024/02/15 09:45:12;;;;;;;4.10;1.60;;;;;;;18.32;56.85;96889.41;2077396;28;20202;-72
2024/02/15 09:46:17;;;;;;;3.08;1.52;;;;;;;18.80;55.91;96890.38;2065028;28;20220;-71
2024/02/15 09:47:19;;;;;;;7.05;2.17;;;;;;;18.31;56.75;96895.66;2073768;28;20254;-71
2024/02/15 09:48:24;;;;;;;5.35;1.80;;;;;;;18.78;55.97;96898.41;2075583;28;20562;-71
2024/02/15 09:49:26;;;;;;;7.03;2.05;;;;;;;18.66;55.94;96884.28;2075339;28;20192;-71
2024/02/15 09:50:32;;;;;;;5.22;1.77;;;;;;;18.65;56.38;96893.19;2067579;28;20214;-71
2024/02/15 09:51:36;;;;;;;6.40;1.70;;;;;;;18.75;55.73;96890.69;2074819;28;20223;-72
2024/02/15 09:52:44;;;;;;;6.82;2.17;;;;;;;18.94;55.39;96887.56;2090744;28;20231;-72
2024/02/15 09:53:47;;;;;;;3.28;1.70;;;;;;;18.93;54.87;96891.16;2088730;28;20207;-72
2024/02/15 09:54:50;;;;;;;3.38;1.50;;;;;;;19.01;55.20;96891.44;2073812;28;20209;-72
2024/02/15 09:55:54;;;;;;;6.45;1.52;;;;;;;19.45;54.65;96894.31;2073541;28;20225;-72
2024/02/15 09:57:00;;;;;;;6.72;1.35;;;;;;;18.54;55.54;96896.63;2078054;28;20732;-73
2024/02/15 09:58:04;;;;;;;2.45;1.13;;;;;;;18.96;55.11;96875.06;2072208;28;20205;-72
2024/02/15 09:59:07;;;;;;;7.55;1.88;;;;;;;19.53;53.95;96889.28;2074181;28;20206;-72
2024/02/15 10:00:13;;;;;;;3.95;1.40;;;;;;;20.21;52.47;96889.31;2076007;28;20696;-72
2024/02/15 10:01:19;;;;;;;5.53;1.77;;;;;;;19.85;52.70;96890.41;2073872;28;20214;-72
2024/02/15 10:02:21;;;;;;;6.60;1.23;;;;;;;19.91;52.83;96884.66;2078692;28;20842;-72
2024/02/15 10:03:26;;;;;;;3.53;1.65;;;;;;;19.70;53.30;96885.31;2079665;28;20604;-64
2024/02/15 10:04:28;;;;;;;2.78;1.20;;;;;;;19.40;53.60;96889.38;2075004;28;20241;-64
2024/02/15 10:05:30;;;;;;;4.95;1.50;;;;;;;19.88;52.51;96876.91;2074663;28;20249;-64
2024/02/15 10:06:32;;;;;;;5.00;1.60;;;;;;;20.02;52.72;96873.19;2072252;28;20226;-65
2024/02/15 10:07:34;;;;;;;3.55;1.20;;;;;;;20.39;51.64;96872.88;2076612;28;20205;-64
2024/02/15 10:08:35;;;;;;;2.05;1.05;;;;;;;20.79;50.55;96876.78;2075472;28;20254;-64
2024/02/15 10:09:37;;;;;;;3.15;1.13;;;;;;;20.37;51.51;96875.66;2074154;28;20365;-64
2024/02/15 10:10:38;;;;;;;5.50;1.40;;;;;;;18.66;53.37;96871.06;2075990;28;20229;-64
2024/02/15 10:11:55;;;;;;;2.85;1.30;;;;;;;19.01;53.60;96862.34;2076518;28;20201;-64
2024/02/15 10:12:56;;;;;;;3.38;1.10;;;;;;;20.49;51.26;96854.41;2079485;28;20244;-64
2024/02/15 10:14:11;;;;;;;3.72;1.17;;;;;;;21.96;48.34;96863.38;2071122;28;20757;-65
2024/02/15 10:15:27;;;;;;;5.47;1.60;;;;;;;20.65;50.13;96867.25;2071907;28;20284;-64
2024/02/15 10:16:35;;;;;;;6.57;1.38;;;;;;;21.24;49.50;96865.91;2084422;28;20219;-64
2024/02/15 10:17:36;;;;;;;6.57;1.30;;;;;;;21.41;48.96;96853.00;2089584;28;20807;-64
2024/02/15 10:18:39;;;;;;;4.72;1.45;;;;;;;19.97;50.74;96872.69;2075902;28;20212;-64
2024/02/15 10:19:43;;;;;;;2.67;1.08;;;;;;;19.94;51.81;96852.59;2072876;28;20203;-65
2024/02/15 10:20:57;;;;;;;4.30;1.33;;;;;;;19.37;53.37;96871.06;2074129;28;20226;-65
2024/02/15 10:22:09;;;;;;;6.47;1.63;;;;;;;19.99;51.51;96876.09;2075958;28;20199;-64
2024/02/15 10:23:13;;;;;;;3.50;0.90;;;;;;;19.75;51.93;96863.75;2072082;28;20212;-65
2024/02/15 10:24:25;;;;;;;4.00;1.10;;;;;;;18.52;54.39;96871.25;2073857;28;20199;-64
2024/02/15 10:25:27;;;;;;;4.03;1.10;;;;;;;19.14;53.22;96879.94;2075842;28;20261;-64
2024/02/15 10:26:29;;;;;;;3.78;1.17;;;;;;;18.86;53.11;96864.28;2076773;28;20899;-63
2024/02/15 10:27:37;;;;;;;6.93;1.67;;;;;;;17.84;54.79;96873.41;2074549;28;20202;-63
2024/02/15 10:28:39;;;;;;;4.93;1.10;;;;;;;18.00;54.39;96870.56;2075342;28;20198;-64
2024/02/15 10:29:41;;;;;;;2.53;1.08;;;;;;;18.29;54.48;96865.84;2076740;28;20592;-64
2024/02/15 10:30:45;;;;;;;4.28;1.30;;;;;;;18.39;54.25;96866.84;2073859;28;20523;-63
2024/02/15 10:31:58;;;;;;;8.18;1.17;;;;;;;18.23;54.54;96859.19;2073871;28;20776;-63
2024/02/15 10:33:01;;;;;;;2.95;1.20;;;;;;;18.68;53.21;96863.88;2091133;28;20262;-63
2024/02/15 10:34:07;;;;;;;4.38;1.30;;;;;;;18.18;54.15;96860.47;2088936;28;20680;-63
2024/02/15 10:35:09;;;;;;;5.22;1.17;;;;;;;18.57;53.19;96850.59;2075192;28;20705;-64
2024/02/15 10:36:13;;;;;;;4.47;1.00;;;;;;;17.23;56.39;96848.53;2075133;28;20222;-64
2024/02/15 10:37:18;;;;;;;3.50;1.50;;;;;;;17.92;54.90;96866.63;2073995;28;20214;-64
2024/02/15 10:38:25;;;;;;;3.30;0.90;;;;;;;18.28;53.88;96856.22;2073306;28;20195;-63
2024/02/15 10:39:27;;;;;;;5.35;1.30;;;;;;;18.42;53.65;96855.19;2071831;28;20289;-64
2024/02/15 10:40:29;;;;;;;4.80;1.00;;;;;;;18.10;54.29;96856.56;2073435;28;20657;-63
2024/02/15 10:41:30;;;;;;;2.85;1.00;;;;;;;17.84;54.65;96837.28;2075204;28;20696;-64
2024/02/15 10:42:34;;;;;;;3.85;1.02;;;;;;;18.82;52.95;96856.72;2075158;28;20795;-64
2024/02/15 10:43:39;;;;;;;3.85;1.13;;;;;;;18.75;53.37;96854.53;2074401;28;20563;-64
2024/02/15 10:44:43;;;;;;;9.07;1.10;;;;;;;18.77;53.94;96855.25;2075928;28;20221;-64
2024/02/15 10:45:45;;;;;;;2.22;1.05;;;;;;;18.58;53.15;96854.94;2075486;28;20202;-63
2024/02/15 10:46:51;;;;;;;7.03;1.40;;;;;;;18.49;52.65;96851.16;2073535;28;20202;-64
2024/02/15 10:47:53;;;;;;;2.38;0.82;;;;;;;19.00;52.64;96850.06;2075561;28;20254;-64
2024/02/15 10:48:56;;;;;;;3.28;1.42;;;;;;;18.29;53.70;96852.63;2075937;28;20206;-64
2024/02/15 10:49:58;;;;;;;4.55;1.38;;;;;;;18.24;53.81;96838.88;2072107;28;20253;-64
2024/02/15 10:51:01;;;;;;;10.52;1.33;;;;;;;19.26;52.70;96839.28;2070609;28;20230;-64
2024/02/15 10:52:05;;;;;;;6.75;1.23;;;;;;;19.48;51.47;96843.78;2089567;28;20240;-63
2024/02/15 10:53:31;;;;;;;3.75;1.30;;;;;;;19.25;51.97;96848.19;2089825;28;20842;-64
2024/02/15 10:54:40;;;;;;;3.45;1.10;;;;;;;18.87;52.91;96850.13;2075802;28;20299;-63
2024/02/15 10:55:51;;;;;;;3.70;1.42;;;;;;;18.74;53.64;96841.41;2069295;28;20643;-65
2024/02/15 10:56:56;;;;;;;6.65;1.50;;;;;;;18.90;52.91;96839.31;2074877;28;20211;-64
2024/02/15 10:58:04;;;;;;;8.00;1.02;;;;;;;18.89;53.07;96842.06;2074684;28;20202;-64
2024/02/15 10:59:13;;;;;;;3.03;1.20;;;;;;;19.13;52.66;96846.50;2077049;28;20294;-65
2024/02/15 11:00:21;;;;;;;4.38;1.10;;;;;;;18.91;52.52;96829.59;2075501;28;20200;-65
2024/02/15 11:01:25;;;;;;;4.60;1.15;;;;;;;18.78;53.07;96832.28;2074456;28;20224;-64
2024/02/15 11:02:31;;;;;;;3.45;1.13;;;;;;;19.13;52.47;96841.19;2076100;28;20347;-66
2024/02/15 11:03:36;;;;;;;9.80;1.20;;;;;;;18.98;52.27;96824.69;2075119;28;20692;-64
2024/02/15 11:04:41;;;;;;;5.50;1.60;;;;;;;18.88;53.03;96843.00;2076025;28;20217;-65
2024/02/15 11:05:45;;;;;;;4.93;1.25;;;;;;;18.85;52.19;96830.03;2068395;28;20234;-64
2024/02/15 11:06:50;;;;;;;3.00;1.30;;;;;;;19.13;51.46;96833.25;2092010;28;20624;-65
2024/02/15 11:07:54;;;;;;;5.80;1.20;;;;;;;19.90;50.90;96838.72;2084626;28;20205;-65
2024/02/15 11:08:56;;;;;;;3.42;1.15;;;;;;;20.17;50.82;96832.19;2074901;28;20203;-65
2024/02/15 11:09:59;;;;;;;2.60;1.00;;;;;;;20.26;50.21;96833.25;2076092;28;20218;-64
2024/02/15 11:11:04;;;;;;;3.15;1.17;;;;;;;18.96;51.88;96826.59;2075170;28;20589;-65
2024/02/15 11:12:06;;;;;;;3.47;1.05;;;;;;;19.74;50.61;96832.94;2073644;28;20239;-65
2024/02/15 11:13:10;;;;;;;7.25;1.00;;;;;;;18.71;52.87;96820.47;2066502;28;20230;-65
2024/02/15 11:14:30;;;;;;;3.15;1.45;;;;;;;18.05;53.57;96819.06;2075193;28;20931;-64
2024/02/15 11:15:35;;;;;;;4.45;1.40;;;;;;;18.01;54.62;96825.53;2072487;28;20206;-65
2024/02/15 11:16:45;;;;;;;5.28;1.63;;;;;;;17.75;54.95;96824.72;2074002;28;20219;-64
2024/02/15 11:17:49;;;;;;;4.15;1.35;;;;;;;17.70;54.99;96805.72;2074317;28;20697;-65
2024/02/15 11:18:51;;;;;;;9.13;1.10;;;;;;;17.59;55.93;96814.41;2076168;28;20480;-65
2024/02/15 11:19:54;;;;;;;4.78;1.30;;;;;;;18.02;55.01;96811.38;2076519;28;20204;-64
2024/02/15 11:20:59;;;;;;;2.67;1.13;;;;;;;18.33;53.96;96811.78;2074844;28;20228;-64
2024/02/15 11:22:06;;;;;;;3.67;1.23;;;;;;;18.44;54.05;96806.53;2075924;28;20348;-64
2024/02/15 11:23:10;;;;;;;7.07;1.05;;;;;;;18.12;54.28;96803.66;2080766;28;20201;-64
2024/02/15 11:24:29;;;;;;;9.10;1.42;;;;;;;16.94;57.42;96811.78;2092909;28;20295;-64
2024/02/15 11:25:34;;;;;;;5.10;1.48;;;;;;;16.84;57.53;96813.34;2085725;28;20296;-64
2024/02/15 11:26:49;;;;;;;2.70;1.20;;;;;;;17.42;56.01;96802.38;2075293;28;20202;-64
2024/02/15 11:27:50;;;;;;;5.40;1.40;;;;;;;17.19;55.74;96802.22;2075434;28;20720;-64
2024/02/15 11:28:54;;;;;;;8.55;1.70;;;;;;;17.85;55.86;96802.00;2075757;28;20206;-65
2024/02/15 11:29:58;;;;;;;2.42;0.90;;;;;;;16.85;57.01;96799.19;2075448;28;20205;-64
2024/02/15 11:31:03;;;;;;;5.80;1.00;;;;;;;16.02;59.15;96800.22;2073586;28;20283;-64
2024/02/15 11:32:05;;;;;;;6.00;1.15;;;;;;;15.98;59.61;96796.09;2072786;28;20321;-64
2024/02/15 11:33:27;;;;;;;2.92;0.98;;;;;;;16.21;59.25;96802.50;2089290;28;20219;-64
2024/02/15 11:34:43;;;;;;;6.90;1.65;;;;;;;16.94;57.95;96792.50;2084556;28;20210;-64
2024/02/15 11:36:01;;;;;;;3.22;1.10;;;;;;;16.64;58.12;96796.19;2074872;28;20258;-64
2024/02/15 11:37:03;;;;;;;8.35;1.20;;;;;;;16.24;58.83;96789.16;2076782;28;20195;-64
2024/02/15 11:38:09;;;;;;;5.57;1.00;;;;;;;16.99;58.03;96793.03;2073959;28;20224;-64
2024/02/15 11:39:40;;;;;;;3.30;1.10;;;;;;;16.85;57.28;96787.78;2084602;28;20224;-64
2024/02/15 11:40:41;;;;;;;4.68;1.10;;;;;;;16.82;57.80;96780.94;2082759;28;20202;-64
2024/02/15 11:41:43;;;;;;;4.47;0.95;;;;;;;18.00;55.54;96781.56;2075170;28;20198;-65
2024/02/15 11:42:46;;;;;;;4.75;0.90;;;;;;;17.27;56.80;96781.41;2075666;28;20205;-64
2024/02/15 11:44:01;;;;;;;4.25;1.00;;;;;;;17.46;56.65;96778.31;2075491;28;20421;-64
2024/02/15 11:45:07;;;;;;;2.97;1.00;;;;;;;18.15;55.11;96776.97;2078683;28;20204;-65
2024/02/15 11:46:13;;;;;;;3.90;1.08;;;;;;;17.20;57.08;96772.22;2085923;28;20276;-65
2024/02/15 11:47:19;;;;;;;6.57;1.30;;;;;;;17.66;56.52;96773.44;2087009;28;20257;-65
2024/02/15 11:48:21;;;;;;;2.10;1.00;;;;;;;18.05;55.69;96768.03;2072947;28;20768;-65
2024/02/15 11:49:22;;;;;;;5.72;1.30;;;;;;;18.13;54.74;96773.59;2074411;28;20197;-65
2024/02/15 11:50:25;;;;;;;4.22;1.10;;;;;;;18.08;55.04;96775.72;2071313;28;20218;-64
2024/02/15 11:51:27;;;;;;;3.38;1.10;;;;;;;18.43;54.66;96770.50;2072280;28;20233;-65
2024/02/15 11:52:29;;;;;;;5.43;1.05;;;;;;;17.95;55.13;96762.56;2073743;28;21018;-65
2024/02/15 11:53:30;;;;;;;3.90;0.90;;;;;;;18.22;54.55;96766.78;2075158;28;20789;-65
2024/02/15 11:54:32;;;;;;;4.80;1.00;;;;;;;18.18;55.08;96760.06;2075924;28;20199;-65
2024/02/15 11:55:33;;;;;;;4.90;0.90;;;;;;;18.30;54.79;96755.66;2074728;28;20308;-64
2024/02/15 11:56:47;;;;;;;2.92;0.90;;;;;;;17.56;56.36;96756.53;2074777;28;20292;-64
2024/02/15 11:58:00;;;;;;;7.22;1.20;;;;;;;17.42;56.59;96761.00;2075960;28;20194;-65
2024/02/15 11:59:06;;;;;;;3.05;0.93;;;;;;;17.44;56.67;96748.53;2075013;28;20201;-65
2024/02/15 12:18:42;;;;;;;5.78;1.10;;;;;;;17.16;57.02;96769.91;2075378;28;20256;-65
2024/02/15 12:19:21;;;;;;;4.45;1.10;;;;;;;16.86;58.71;96742.88;2063273;28;20265;-65
2024/02/15 12:20:24;;;;;;;5.65;1.25;;;;;;;16.84;58.57;96750.03;2091144;28;20287;-65
2024/02/15 12:21:27;;;;;;;2.42;0.98;;;;;;;16.72;58.34;96735.03;2085688;28;20250;-65
2024/02/15 12:22:37;;;;;;;10.77;1.30;;;;;;;17.14;57.95;96746.25;2074164;28;20768;-65
2024/02/15 12:23:41;;;;;;;2.88;0.90;;;;;;;16.59;58.46;96742.94;2071302;28;20194;-65
2024/02/15 12:24:43;;;;;;;4.30;1.33;;;;;;;17.00;58.29;96734.03;2075159;28;20201;-65
2024/02/15 12:25:51;;;;;;;3.78;1.10;;;;;;;16.72;58.24;96735.91;2074214;28;20304;-65
2024/02/15 12:27:01;;;;;;;3.25;0.80;;;;;;;16.47;58.92;96732.28;2074433;28;20248;-65
2024/02/15 12:28:04;;;;;;;3.35;1.10;;;;;;;16.10;59.46;96737.38;2075505;28;20198;-65
2024/02/15 12:29:08;;;;;;;2.22;1.00;;;;;;;15.78;59.58;96729.75;2075125;28;20209;-65
2024/02/15 12:30:25;;;;;;;7.10;1.45;;;;;;;15.84;60.36;96733.78;2073938;28;20280;-65
2024/02/15 12:31:31;;;;;;;3.97;1.25;;;;;;;16.02;60.30;96723.84;2072997;28;20724;-66
2024/02/15 12:32:33;;;;;;;4.32;1.20;;;;;;;16.20;59.46;96707.78;2074738;28;20231;-64
2024/02/15 12:33:35;;;;;;;5.53;1.30;;;;;;;16.30;59.57;96711.47;2076765;28;20223;-64
2024/02/15 12:34:38;;;;;;;3.33;0.90;;;;;;;16.25;59.84;96711.81;2075463;28;20243;-65
2024/02/15 12:35:44;;;;;;;7.07;1.17;;;;;;;16.38;58.98;96724.13;2090798;28;20193;-65
2024/02/15 12:36:49;;;;;;;5.70;1.40;;;;;;;16.28;59.15;96716.03;2082912;28;20197;-65
2024/02/15 12:38:02;;;;;;;3.67;0.98;;;;;;;15.96;59.27;96721.59;2075464;28;20662;-65
2024/02/15 12:39:10;;;;;;;5.10;1.10;;;;;;;15.49;60.95;96723.69;2075636;28;20245;-65
2024/02/15 12:40:18;;;;;;;7.00;1.15;;;;;;;15.40;61.10;96722.50;2075221;28;20197;-74
2024/02/15 12:41:20;;;;;;;5.30;1.30;;;;;;;15.18;61.63;96721.22;2073091;28;20229;-74
2024/02/15 12:42:22;;;;;;;2.30;1.15;;;;;;;15.09;61.91;96716.50;2071568;28;20194;-73
2024/02/15 12:43:24;;;;;;;2.50;1.10;;;;;;;15.60;61.37;96715.13;2073338;28;20285;-74
2024/02/15 12:44:27;;;;;;;2.70;1.00;;;;;;;15.75;60.31;96716.75;2074251;28;20233;-74
2024/02/15 12:45:29;;;;;;;5.88;1.30;;;;;;;15.61;60.88;96709.75;2075722;28;20197;-73
2024/02/15 12:46:32;;;;;;;5.32;1.15;;;;;;;16.05;60.53;96710.50;2074072;28;20287;-74
2024/02/15 12:47:33;;;;;;;1.90;0.98;;;;;;;15.77;60.37;96711.38;2072598;28;20229;-73
2024/02/15 12:48:35;;;;;;;3.35;1.10;;;;;;;15.17;60.99;96711.63;2072511;28;20195;-73
2024/02/15 12:49:37;;;;;;;3.50;1.23;;;;;;;15.50;60.65;96710.44;2072640;28;20209;-73
2024/02/15 12:50:39;;;;;;;4.07;1.10;;;;;;;15.16;61.54;96711.69;2074231;28;20201;-72